메인 페이지
METAR-TAF:

METAR-TAF

공항 :

Gökçeada, 터키

위도: 40-12-04N, 경도: 25-52-56E, 고도: 22m

현재 날씨관측

예보는 1 시간 13분 전, 07:50시(UTC)에 발표되었습니다.
남동1kt
온도 11°C
습도 76%
기압 1016 hPa
시정 10km 이상
고도 3500ft 상공 구름 보통

METAR: LTFK 090750Z 14001KT 9999 SCT035 11/07 Q1016

시각: 12:03 (09:03 UTC)

예보

예보는 1 시간 23분 전, 07:40시(UTC)에 발표되었습니다.
예보 대상 시간: 09일 09시부터 09일 18시까지 (UTC)
여러 방향의 바람 2kt
시정 10km 이상
고도 2500ft 상공 구름 보통
전환 중
09일 09시부터 09일 12시까지 (UTC)
시정 10km 이상
1500m 미만 상공 구름 및 적란운 없음

TAF: LTFK 090740Z 0909/0918 VRB02KT 9999 SCT025 BECMG 0909/0912 CAVOK

4,000개 이상의 공항 관측 자료 및 예보 (METAR 및 TAF 보고).

지도상에서 검색 가능한 기상관측소가 노란 점과 빨간 점으로 표시되어 있습니다.

기상관측소 명을 보려면 표시 위로 마우스를 이동하세요.

날씨 관측과 예보를 보려면 클릭하세요.

지도 변경 : 확대하려면 엑스 표시가 있는 녹색 버튼, 축소하려면 빼기 표시가 있는 녹색 버튼, 다음 페이지의 지도를 보려면 녹색 화살표를 클릭하세요.


METAR-TAF: